createdAt,value
2018-09-04T00:00:12.545Z,57.80
2018-09-04T00:02:42.263Z,59.80
2018-09-04T00:05:10.705Z,60.20
2018-09-04T00:07:39.104Z,59.50
2018-09-04T00:10:08.240Z,64.40
2018-09-04T00:12:37.085Z,60.93
2018-09-04T00:15:05.673Z,66.90
2018-09-04T00:17:34.077Z,71.67
2018-09-04T00:20:02.495Z,71.97
2018-09-04T00:22:30.888Z,71.37
2018-09-04T00:24:59.287Z,73.13
2018-09-04T00:27:27.679Z,70.23
2018-09-04T00:29:56.088Z,68.63
2018-09-04T00:32:24.480Z,62.90
2018-09-04T00:34:52.981Z,63.67
2018-09-04T00:37:21.442Z,64.13
2018-09-04T00:39:50.454Z,67.67
2018-09-04T00:42:18.874Z,65.20
2018-09-04T00:44:47.260Z,66.27
2018-09-04T00:47:15.657Z,65.73
2018-09-04T00:49:44.107Z,63.13
2018-09-04T00:52:12.500Z,61.70
2018-09-04T00:54:40.920Z,69.53
2018-09-04T00:57:09.449Z,71.80
2018-09-04T00:59:37.872Z,67.57
2018-09-04T01:02:07.238Z,76.40
2018-09-04T01:04:35.793Z,77.30
2018-09-04T01:07:04.234Z,82.70
2018-09-04T01:09:32.757Z,87.60
2018-09-04T01:12:01.168Z,83.60
2018-09-04T01:14:29.594Z,83.47
2018-09-04T01:16:58.000Z,83.07
2018-09-04T01:19:26.405Z,88.90
2018-09-04T01:21:54.805Z,92.33
2018-09-04T01:24:23.248Z,90.33
2018-09-04T01:26:51.633Z,70.83
2018-09-04T01:29:20.016Z,69.47
2018-09-04T01:31:48.672Z,70.77
2018-09-04T01:34:17.071Z,71.50
2018-09-04T01:36:45.456Z,70.70
2018-09-04T01:39:13.860Z,66.73
2018-09-04T01:41:42.261Z,64.40
2018-09-04T01:44:10.652Z,66.30
2018-09-04T01:46:39.228Z,69.07
2018-09-04T01:49:07.632Z,57.07
2018-09-04T01:51:36.068Z,56.80
2018-09-04T01:54:04.500Z,62.47
2018-09-04T01:56:32.926Z,56.27
2018-09-04T01:59:01.334Z,56.57
2018-09-04T02:01:29.768Z,58.90
2018-09-04T02:03:58.176Z,62.00
2018-09-04T02:06:26.599Z,72.13
2018-09-04T02:08:55.056Z,73.90
2018-09-04T02:11:23.469Z,75.30
2018-09-04T02:13:51.956Z,81.83
2018-09-04T02:16:20.421Z,67.33
2018-09-04T02:18:49.074Z,61.23
2018-09-04T02:21:17.481Z,60.60
2018-09-04T02:23:45.880Z,61.87
2018-09-04T02:26:14.269Z,63.07
2018-09-04T02:28:42.644Z,64.77
2018-09-04T02:31:11.057Z,62.47
2018-09-04T02:33:39.446Z,59.93
2018-09-04T02:36:07.860Z,59.77
2018-09-04T02:38:36.309Z,59.73
2018-09-04T02:41:05.289Z,59.93
2018-09-04T02:43:33.693Z,57.40
2018-09-04T02:46:02.088Z,54.13
2018-09-04T02:48:30.484Z,60.83
2018-09-04T02:50:59.120Z,63.87
2018-09-04T02:53:27.541Z,60.10
2018-09-04T02:55:56.052Z,60.93
2018-09-04T02:58:24.489Z,61.30
2018-09-04T03:00:52.949Z,58.50
2018-09-04T03:03:21.364Z,58.10
2018-09-04T03:05:49.941Z,66.27
2018-09-04T03:08:18.340Z,62.40
2018-09-04T03:10:46.734Z,64.83
2018-09-04T03:13:15.137Z,64.40
2018-09-04T03:15:43.705Z,59.70
2018-09-04T03:18:12.129Z,58.00
2018-09-04T03:20:40.533Z,60.37
2018-09-04T03:23:09.103Z,60.00
2018-09-04T03:25:37.440Z,65.13
2018-09-04T03:28:06.128Z,68.90
2018-09-04T03:30:34.521Z,67.30
2018-09-04T03:33:02.971Z,72.57
2018-09-04T03:35:31.548Z,74.37
2018-09-04T03:37:59.940Z,76.07
2018-09-04T03:40:28.373Z,79.80
2018-09-04T03:42:56.809Z,84.23
2018-09-04T03:45:25.325Z,83.40
2018-09-04T03:47:53.737Z,87.07
2018-09-04T03:50:22.130Z,93.50
2018-09-04T03:52:50.529Z,87.03
2018-09-04T03:55:18.936Z,82.63
2018-09-04T03:57:47.756Z,87.03
2018-09-04T04:00:16.144Z,76.97
2018-09-04T04:02:44.609Z,80.90
2018-09-04T04:05:13.018Z,90.33
2018-09-04T04:07:41.488Z,87.10
2018-09-04T04:10:09.924Z,78.57
2018-09-04T04:12:38.669Z,90.00
2018-09-04T04:15:07.288Z,87.47
2018-09-04T04:17:35.724Z,83.70
2018-09-04T04:20:04.245Z,92.63
2018-09-04T04:22:32.825Z,98.50
2018-09-04T04:25:01.209Z,101.00
2018-09-04T04:27:29.614Z,102.43
2018-09-04T04:29:58.085Z,98.20
2018-09-04T04:32:27.138Z,98.57
2018-09-04T04:34:55.628Z,98.57
2018-09-04T04:37:24.040Z,92.90
2018-09-04T04:39:52.459Z,95.07
2018-09-04T04:42:20.981Z,94.80
2018-09-04T04:44:49.353Z,97.00
2018-09-04T04:47:21.976Z,95.90
2018-09-04T04:49:51.456Z,99.60
2018-09-04T04:52:19.878Z,100.40
2018-09-04T04:54:48.292Z,114.83
2018-09-04T04:57:16.711Z,107.10
2018-09-04T04:59:45.112Z,109.37
2018-09-04T05:02:13.542Z,109.53
2018-09-04T05:04:41.928Z,111.20
2018-09-04T05:07:10.319Z,105.27
2018-09-04T05:09:38.928Z,106.20
2018-09-04T05:12:07.332Z,104.67
2018-09-04T05:14:35.745Z,104.20
2018-09-04T05:17:04.222Z,103.40
2018-09-04T05:19:32.615Z,98.87
2018-09-04T05:22:01.014Z,97.47
2018-09-04T05:24:29.605Z,98.60
2018-09-04T05:26:57.997Z,93.80
2018-09-04T05:29:26.533Z,92.60
2018-09-04T05:32:00.546Z,97.30
2018-09-04T05:34:29.000Z,92.93
2018-09-04T05:36:57.396Z,90.97
2018-09-04T05:39:25.828Z,87.07
2018-09-04T05:41:54.265Z,87.47
2018-09-04T05:44:22.697Z,91.37
2018-09-04T05:46:53.505Z,92.50
2018-09-04T05:49:24.041Z,105.43
2018-09-04T05:51:52.686Z,93.70
2018-09-04T05:54:21.121Z,97.50
2018-09-04T05:56:49.549Z,102.93
2018-09-04T05:59:17.977Z,114.67
2018-09-04T06:01:46.396Z,95.73
2018-09-04T06:04:14.889Z,91.43
2018-09-04T06:06:43.594Z,93.17
2018-09-04T06:09:11.997Z,94.20
2018-09-04T06:11:40.389Z,91.57
2018-09-04T06:14:08.801Z,92.73
2018-09-04T06:16:37.196Z,91.60
2018-09-04T06:19:05.625Z,90.10
2018-09-04T06:21:34.033Z,87.60
2018-09-04T06:24:02.477Z,88.13
2018-09-04T06:26:30.886Z,84.63
2018-09-04T06:28:59.278Z,79.77
2018-09-04T06:31:27.696Z,78.53
2018-09-04T06:33:56.089Z,74.80
2018-09-04T06:36:24.495Z,76.37
2018-09-04T06:38:52.916Z,74.07
2018-09-04T06:41:21.340Z,68.87
2018-09-04T06:43:49.768Z,68.70
2018-09-04T06:46:18.177Z,69.50
2018-09-04T06:48:46.560Z,65.83
2018-09-04T06:51:14.986Z,70.07
2018-09-04T06:53:43.398Z,67.20
2018-09-04T06:56:11.806Z,70.30
2018-09-04T06:58:40.773Z,67.17
2018-09-04T07:01:09.193Z,63.90
2018-09-04T07:03:37.672Z,68.17
2018-09-04T07:06:06.541Z,64.97
2018-09-04T07:08:34.840Z,66.67
2018-09-04T07:11:03.261Z,70.33
2018-09-04T07:13:31.962Z,69.97
2018-09-04T07:16:00.345Z,69.63
2018-09-04T07:18:28.750Z,68.90
2018-09-04T07:20:57.408Z,68.20
2018-09-04T07:23:26.101Z,70.50
2018-09-04T07:25:54.489Z,69.13
2018-09-04T07:28:23.013Z,71.90
2018-09-04T07:30:51.518Z,70.87
2018-09-04T07:33:19.961Z,70.93
2018-09-04T07:35:48.372Z,71.30
2018-09-04T07:38:16.764Z,70.80
2018-09-04T07:40:45.130Z,65.63
2018-09-04T07:43:13.563Z,65.57
2018-09-04T07:45:41.961Z,67.73
2018-09-04T07:48:10.628Z,65.73
2018-09-04T07:50:39.024Z,64.23
2018-09-04T07:53:07.496Z,66.60
2018-09-04T07:55:35.892Z,65.77
2018-09-04T07:58:04.588Z,69.43
2018-09-04T08:00:32.988Z,71.30
2018-09-04T08:03:01.420Z,75.57
2018-09-04T08:05:29.841Z,74.57
2018-09-04T08:07:58.278Z,74.10
2018-09-04T08:10:26.703Z,72.73
2018-09-04T08:12:55.092Z,74.50
2018-09-04T08:15:23.516Z,78.00
2018-09-04T08:17:51.922Z,80.37
2018-09-04T08:20:20.389Z,81.30
2018-09-04T08:22:48.735Z,77.50
2018-09-04T08:25:17.150Z,76.37
2018-09-04T08:27:45.597Z,81.27
2018-09-04T08:30:13.997Z,80.93
2018-09-04T08:32:42.445Z,77.00
2018-09-04T08:35:10.810Z,80.13
2018-09-04T08:37:39.277Z,80.77
2018-09-04T08:40:07.783Z,78.90
2018-09-04T08:42:36.480Z,82.93
2018-09-04T08:45:04.917Z,87.13
2018-09-04T08:47:33.335Z,85.20
2018-09-04T08:50:01.728Z,90.13
2018-09-04T08:52:30.333Z,88.80
2018-09-04T08:54:58.778Z,85.00
2018-09-04T08:57:27.173Z,86.97
2018-09-04T08:59:55.609Z,82.03
2018-09-04T09:02:24.056Z,85.87
2018-09-04T09:04:52.472Z,89.43
2018-09-04T09:07:20.909Z,86.07
2018-09-04T09:09:49.356Z,80.57
2018-09-04T09:12:17.739Z,83.57
2018-09-04T09:14:46.165Z,82.20
2018-09-04T09:17:14.661Z,81.13
2018-09-04T09:19:43.059Z,81.93
2018-09-04T09:22:11.470Z,78.83
2018-09-04T09:24:39.886Z,80.17
2018-09-04T09:27:08.368Z,80.67
2018-09-04T09:29:36.832Z,81.90
2018-09-04T09:32:05.769Z,80.43
2018-09-04T09:34:34.168Z,78.07
2018-09-04T09:37:02.655Z,72.47
2018-09-04T09:39:31.071Z,76.07
2018-09-04T09:41:59.556Z,73.43
2018-09-04T09:44:27.984Z,69.20
2018-09-04T09:47:02.006Z,68.70
2018-09-04T09:49:31.864Z,70.90
2018-09-04T09:52:00.409Z,69.37
2018-09-04T09:54:28.806Z,69.70
2018-09-04T09:56:57.232Z,66.63
2018-09-04T09:59:25.698Z,67.07
2018-09-04T10:01:59.557Z,69.20
2018-09-04T10:04:27.975Z,64.77
2018-09-04T10:06:56.381Z,65.43
2018-09-04T10:09:24.949Z,66.03
2018-09-04T10:11:53.426Z,62.10
2018-09-04T10:14:21.814Z,59.30
2018-09-04T10:16:50.317Z,60.53
2018-09-04T10:19:18.728Z,58.80
2018-09-04T10:21:47.159Z,58.20
2018-09-04T10:24:15.578Z,59.80
2018-09-04T10:26:44.012Z,57.00
2018-09-04T10:29:12.444Z,57.10
2018-09-04T10:31:40.921Z,55.67
2018-09-04T10:34:09.339Z,59.00
2018-09-04T10:36:37.752Z,59.60
2018-09-04T10:39:12.851Z,57.13
2018-09-04T10:41:41.321Z,53.73
2018-09-04T10:44:09.736Z,51.37
2018-09-04T10:46:38.093Z,50.50
2018-09-04T10:49:06.732Z,52.27
2018-09-04T10:51:35.125Z,53.00
2018-09-04T10:54:04.014Z,44.50
2018-09-04T10:56:32.489Z,47.57
2018-09-04T10:59:00.909Z,43.97
2018-09-04T11:01:29.545Z,43.90
2018-09-04T11:03:57.953Z,47.83
2018-09-04T11:06:26.355Z,48.93
2018-09-04T11:08:55.153Z,48.07
2018-09-04T11:11:23.518Z,46.40
2018-09-04T11:13:51.926Z,49.73
2018-09-04T11:16:20.630Z,49.33
2018-09-04T11:18:49.029Z,49.50
2018-09-04T11:21:17.466Z,47.10
2018-09-04T11:23:45.968Z,41.13
2018-09-04T11:26:14.313Z,36.63
2018-09-04T11:28:46.773Z,36.83
2018-09-04T11:31:15.162Z,45.03
2018-09-04T11:33:43.638Z,44.17
2018-09-04T11:36:12.259Z,42.17
2018-09-04T11:38:40.656Z,40.70
2018-09-04T11:41:09.057Z,37.50
2018-09-04T11:43:37.722Z,31.73
2018-09-04T11:46:06.753Z,27.80
2018-09-04T11:48:38.128Z,36.93
2018-09-04T11:51:08.217Z,31.70
2018-09-04T11:53:36.727Z,34.07
2018-09-04T11:56:05.332Z,34.10
2018-09-04T11:58:34.068Z,31.90
2018-09-04T12:01:03.934Z,33.50
2018-09-04T12:03:32.813Z,38.17
2018-09-04T12:06:01.219Z,34.10
2018-09-04T12:08:29.657Z,34.00
2018-09-04T12:10:58.111Z,34.00
2018-09-04T12:13:30.576Z,38.80
2018-09-04T12:15:59.961Z,35.47
2018-09-04T12:18:28.978Z,36.13
2018-09-04T12:21:06.908Z,33.37
2018-09-04T12:23:35.269Z,32.27
2018-09-04T12:26:04.973Z,33.33
2018-09-04T12:28:33.673Z,37.50
2018-09-04T12:31:02.437Z,31.93
2018-09-04T12:33:31.064Z,33.57
2018-09-04T12:35:59.458Z,32.97
2018-09-04T12:38:30.761Z,28.93
2018-09-04T12:41:03.416Z,28.90
2018-09-04T12:43:32.024Z,27.03
2018-09-04T12:46:00.447Z,27.97
2018-09-04T12:48:30.053Z,28.43
2018-09-04T12:51:00.133Z,30.63
2018-09-04T12:53:29.520Z,27.60
2018-09-04T12:55:57.954Z,25.00
2018-09-04T12:58:26.376Z,26.03
2018-09-04T13:00:55.698Z,27.43
2018-09-04T13:03:28.379Z,29.90
2018-09-04T13:05:56.896Z,39.60
2018-09-04T13:08:27.030Z,44.17
2018-09-04T13:10:55.496Z,44.00
2018-09-04T13:13:23.945Z,41.23
2018-09-04T13:15:54.206Z,37.90
2018-09-04T13:18:22.978Z,40.57
2018-09-04T13:20:51.707Z,39.00
2018-09-04T13:23:20.218Z,37.40
2018-09-04T13:25:48.629Z,36.53
2018-09-04T13:28:17.085Z,37.33
2018-09-04T13:30:45.580Z,33.77
2018-09-04T13:33:14.131Z,42.60
2018-09-04T13:35:42.580Z,38.63
2018-09-04T13:38:11.033Z,34.73
2018-09-04T13:40:40.450Z,39.00
2018-09-04T13:43:09.188Z,36.33
2018-09-04T13:45:37.580Z,35.37
2018-09-04T13:48:05.993Z,35.17
2018-09-04T13:50:34.401Z,37.97
2018-09-04T13:53:02.811Z,37.70
2018-09-04T13:55:31.334Z,37.83
2018-09-04T13:57:59.709Z,38.33
2018-09-04T14:00:28.239Z,38.33
2018-09-04T14:02:56.690Z,34.47
2018-09-04T14:05:25.112Z,38.67
2018-09-04T14:07:53.532Z,36.53
2018-09-04T14:10:21.969Z,35.60
2018-09-04T14:12:50.400Z,36.60
2018-09-04T14:15:18.872Z,34.30
2018-09-04T14:17:47.305Z,35.20
2018-09-04T14:20:15.699Z,32.70
2018-09-04T14:22:44.123Z,35.17
2018-09-04T14:25:12.601Z,34.17
2018-09-04T14:27:41.009Z,31.30
2018-09-04T14:30:16.560Z,31.07
2018-09-04T14:32:37.864Z,32.33
2018-09-04T14:35:07.273Z,34.27
2018-09-04T14:37:35.697Z,31.33
2018-09-04T14:40:04.423Z,35.93
2018-09-04T14:42:32.864Z,31.10
2018-09-04T14:45:01.345Z,31.70
2018-09-04T14:47:29.700Z,31.10
2018-09-04T14:49:58.169Z,32.73
2018-09-04T14:52:26.557Z,31.27
2018-09-04T14:54:55.256Z,35.90
2018-09-04T14:57:23.729Z,32.90
2018-09-04T14:59:52.214Z,33.53
2018-09-04T15:02:20.637Z,32.13
2018-09-04T15:04:49.236Z,32.27
2018-09-04T15:07:17.739Z,32.20
2018-09-04T15:09:46.270Z,32.10
2018-09-04T15:12:14.696Z,32.47
2018-09-04T15:14:43.096Z,28.20
2018-09-04T15:17:11.528Z,30.50
2018-09-04T15:19:39.961Z,29.50
2018-09-04T15:22:08.344Z,28.13
2018-09-04T15:24:36.745Z,28.87
2018-09-04T15:27:05.212Z,31.13
2018-09-04T15:29:33.629Z,28.30
2018-09-04T15:32:02.114Z,30.13
2018-09-04T15:34:30.512Z,29.07
2018-09-04T15:36:58.955Z,30.87
2018-09-04T15:39:27.380Z,29.60
2018-09-04T15:41:55.922Z,29.50
2018-09-04T15:44:24.319Z,33.17
2018-09-04T15:46:52.748Z,30.03
2018-09-04T15:49:26.510Z,30.30
2018-09-04T15:51:55.077Z,30.90
2018-09-04T15:54:23.740Z,30.60
2018-09-04T15:56:52.355Z,29.43
2018-09-04T15:59:20.884Z,29.10
2018-09-04T16:01:49.389Z,30.93
2018-09-04T16:04:18.194Z,27.70
2018-09-04T16:06:46.801Z,28.10
2018-09-04T16:09:15.250Z,30.03
2018-09-04T16:11:43.660Z,28.37
2018-09-04T16:14:12.095Z,30.80
2018-09-04T16:16:40.525Z,16.23
2018-09-04T16:19:09.007Z,9.80
2018-09-04T16:21:37.504Z,10.53
2018-09-04T16:24:06.330Z,10.03
2018-09-04T16:26:34.758Z,7.60
2018-09-04T16:29:03.192Z,7.60
2018-09-04T16:31:31.609Z,7.00
2018-09-04T16:34:00.331Z,7.60
2018-09-04T16:36:28.779Z,10.90
2018-09-04T16:38:57.188Z,10.40
2018-09-04T16:41:25.668Z,18.00
2018-09-04T16:43:54.030Z,16.90
2018-09-04T16:46:22.465Z,13.30
2018-09-04T16:48:50.920Z,13.70
2018-09-04T16:51:19.397Z,12.30
2018-09-04T16:53:47.781Z,11.80
2018-09-04T16:56:16.390Z,12.90
2018-09-04T16:58:44.808Z,13.60
2018-09-04T17:01:13.243Z,12.20
2018-09-04T17:03:41.674Z,11.40
2018-09-04T17:06:10.137Z,11.87
2018-09-04T17:08:38.786Z,10.83
2018-09-04T17:11:07.170Z,11.77
2018-09-04T17:13:35.724Z,12.03
2018-09-04T17:16:04.289Z,11.27
2018-09-04T17:18:32.737Z,10.77
2018-09-04T17:21:01.408Z,11.10
2018-09-04T17:23:29.843Z,13.60
2018-09-04T17:25:58.340Z,11.60
2018-09-04T17:28:27.247Z,15.37
2018-09-04T17:30:55.917Z,14.40
2018-09-04T17:33:24.355Z,15.97
2018-09-04T17:35:52.992Z,17.57
2018-09-04T17:38:21.580Z,16.37
2018-09-04T17:40:50.958Z,14.87
2018-09-04T17:43:19.412Z,14.80
2018-09-04T17:45:47.901Z,15.23
2018-09-04T17:48:16.462Z,13.50
2018-09-04T17:50:46.054Z,13.40
2018-09-04T17:53:14.446Z,13.70
2018-09-04T17:55:42.913Z,15.20
2018-09-04T17:58:11.408Z,13.87
2018-09-04T18:00:39.889Z,14.77
2018-09-04T18:03:08.432Z,15.50
2018-09-04T18:05:36.953Z,14.97
2018-09-04T18:08:05.373Z,16.53
2018-09-04T18:10:33.901Z,18.20
2018-09-04T18:13:02.581Z,18.27
2018-09-04T18:15:31.025Z,20.23
2018-09-04T18:18:00.137Z,21.93
2018-09-04T18:20:28.714Z,22.30
2018-09-04T18:22:57.149Z,21.20
2018-09-04T18:25:25.826Z,21.67
2018-09-04T18:27:54.241Z,20.90
2018-09-04T18:30:22.669Z,21.60
2018-09-04T18:32:51.185Z,25.80
2018-09-04T18:35:19.626Z,27.80
2018-09-04T18:37:48.138Z,26.77
2018-09-04T18:40:16.647Z,31.33
2018-09-04T18:42:45.041Z,29.80
2018-09-04T18:45:24.825Z,31.07
2018-09-04T18:47:54.042Z,33.30
2018-09-04T18:50:22.474Z,33.53
2018-09-04T18:52:51.789Z,30.90
2018-09-04T18:55:20.184Z,30.70
2018-09-04T18:57:48.737Z,29.20
2018-09-04T19:00:18.951Z,30.00
2018-09-04T19:02:48.521Z,30.37
2018-09-04T19:05:17.680Z,33.10
2018-09-04T19:07:46.957Z,33.67
2018-09-04T19:10:15.423Z,34.37
2018-09-04T19:12:44.133Z,37.73
2018-09-04T19:15:14.889Z,36.10
2018-09-04T19:17:43.383Z,35.63
2018-09-04T19:20:11.947Z,39.00
2018-09-04T19:22:40.339Z,38.30
2018-09-04T19:25:10.052Z,38.90
2018-09-04T19:27:38.508Z,44.90
2018-09-04T19:30:06.996Z,42.33
2018-09-04T19:32:35.704Z,41.47
2018-09-04T19:35:04.225Z,40.50
2018-09-04T19:37:32.734Z,42.77
2018-09-04T19:40:01.298Z,41.93
2018-09-04T19:42:29.723Z,45.40
2018-09-04T19:44:58.312Z,45.63
2018-09-04T19:47:26.770Z,48.77
2018-09-04T19:49:55.340Z,49.70
2018-09-04T19:52:23.977Z,48.33
2018-09-04T19:54:52.387Z,47.43
2018-09-04T19:57:20.877Z,46.57
2018-09-04T19:59:49.723Z,49.43
2018-09-04T20:02:18.806Z,53.80
2018-09-04T20:04:47.357Z,57.63
2018-09-04T20:07:16.054Z,63.27
2018-09-04T20:09:44.532Z,59.77
2018-09-04T20:12:14.751Z,62.87
2018-09-04T20:14:43.488Z,60.77
2018-09-04T20:17:11.929Z,64.77
2018-09-04T20:19:42.466Z,67.10
2018-09-04T20:22:11.794Z,65.40
2018-09-04T20:24:40.620Z,70.70
2018-09-04T20:27:09.064Z,68.10
2018-09-04T20:29:37.650Z,72.30
2018-09-04T20:32:06.195Z,65.63
2018-09-04T20:34:34.640Z,66.33
2018-09-04T20:37:03.180Z,54.20
2018-09-04T20:39:31.597Z,53.00
2018-09-04T20:42:00.020Z,50.33
2018-09-04T20:44:28.749Z,46.90
2018-09-04T20:46:57.220Z,48.30
2018-09-04T20:49:25.765Z,47.30
2018-09-04T20:51:54.593Z,50.63
2018-09-04T20:54:23.043Z,51.50
2018-09-04T20:56:57.392Z,50.07
2018-09-04T20:59:37.189Z,51.60
2018-09-04T21:02:17.009Z,52.67
2018-09-04T21:04:57.887Z,51.90
2018-09-04T21:07:45.387Z,52.40
2018-09-04T21:10:14.702Z,56.37
2018-09-04T21:12:43.248Z,54.53
2018-09-04T21:15:12.538Z,49.40
2018-09-04T21:17:41.018Z,50.13
2018-09-04T21:20:09.546Z,48.57
2018-09-04T21:22:38.911Z,49.30
2018-09-04T21:25:09.063Z,51.77
2018-09-04T21:27:37.549Z,50.23
2018-09-04T21:30:06.321Z,52.00
2018-09-04T21:32:34.729Z,50.30
2018-09-04T21:35:04.397Z,50.77
2018-09-04T21:37:33.064Z,48.27
2018-09-04T21:40:01.535Z,49.63
2018-09-04T21:42:29.924Z,53.30
2018-09-04T21:44:58.317Z,57.77
2018-09-04T21:47:26.708Z,58.20
2018-09-04T21:49:55.089Z,57.93
2018-09-04T21:52:23.724Z,54.40
2018-09-04T21:54:52.162Z,59.57
2018-09-04T21:57:21.321Z,56.33
2018-09-04T21:59:49.733Z,56.70
2018-09-04T22:02:18.148Z,59.57
2018-09-04T22:04:46.557Z,59.90
2018-09-04T22:07:14.984Z,63.87
2018-09-04T22:09:43.395Z,62.43
2018-09-04T22:12:12.048Z,62.27
2018-09-04T22:14:40.960Z,63.37
2018-09-04T22:17:09.425Z,62.77
2018-09-04T22:19:37.844Z,66.57
2018-09-04T22:22:06.295Z,68.33
2018-09-04T22:24:35.908Z,65.37
2018-09-04T22:27:08.631Z,66.40
2018-09-04T22:29:40.137Z,64.53
2018-09-04T22:32:08.736Z,66.70
2018-09-04T22:34:37.132Z,67.97
2018-09-04T22:37:05.571Z,69.03
2018-09-04T22:39:34.025Z,65.67
2018-09-04T22:42:02.457Z,65.33
2018-09-04T22:44:30.852Z,64.37
2018-09-04T22:46:59.292Z,65.37
2018-09-04T22:49:27.733Z,64.40
2018-09-04T22:52:00.664Z,53.87
2018-09-04T22:54:29.337Z,59.80
2018-09-04T22:56:57.745Z,59.03
2018-09-04T22:59:27.021Z,54.60
2018-09-04T23:01:55.437Z,58.47
2018-09-04T23:04:23.821Z,58.90
2018-09-04T23:06:52.395Z,61.27
2018-09-04T23:09:20.777Z,56.63
2018-09-04T23:11:49.205Z,55.23
2018-09-04T23:14:17.824Z,53.90
2018-09-04T23:16:46.207Z,58.87
2018-09-04T23:19:14.629Z,62.30
2018-09-04T23:21:43.037Z,65.97
2018-09-04T23:24:11.573Z,67.53
2018-09-04T23:26:40.049Z,71.50
2018-09-04T23:29:08.461Z,70.10
2018-09-04T23:31:36.877Z,68.60
2018-09-04T23:34:05.273Z,70.00
2018-09-04T23:36:33.708Z,69.47
2018-09-04T23:39:02.232Z,68.77
2018-09-04T23:41:30.692Z,65.20
2018-09-04T23:43:59.097Z,65.47
2018-09-04T23:46:27.491Z,68.87
2018-09-04T23:48:56.120Z,68.00
2018-09-04T23:51:24.524Z,67.57
2018-09-04T23:53:52.910Z,67.10
2018-09-04T23:56:21.320Z,67.67
2018-09-04T23:58:49.737Z,67.27
